sensor_id;sensor_type;location;lat;lon;timestamp;temperature;humidity
3208;DHT22;1616;52.394;9.756;2023-03-04T00:01:54;5.60;1.00
3208;DHT22;1616;52.394;9.756;2023-03-04T00:04:20;5.60;1.00
3208;DHT22;1616;52.394;9.756;2023-03-04T00:06:45;5.60;1.00
3208;DHT22;1616;52.394;9.756;2023-03-04T00:09:12;5.70;1.00
3208;DHT22;1616;52.394;9.756;2023-03-04T00:11:38;5.70;1.00
3208;DHT22;1616;52.394;9.756;2023-03-04T00:14:03;5.70;1.00
3208;DHT22;1616;52.394;9.756;2023-03-04T00:16:29;5.70;1.00
3208;DHT22;1616;52.394;9.756;2023-03-04T00:18:55;5.70;1.00
3208;DHT22;1616;52.394;9.756;2023-03-04T00:21:22;5.80;1.00
3208;DHT22;1616;52.394;9.756;2023-03-04T00:23:48;5.80;1.00
3208;DHT22;1616;52.394;9.756;2023-03-04T00:26:14;5.80;1.00
3208;DHT22;1616;52.394;9.756;2023-03-04T00:28:40;5.80;1.00
3208;DHT22;1616;52.394;9.756;2023-03-04T00:31:06;5.80;1.00
3208;DHT22;1616;52.394;9.756;2023-03-04T00:33:32;5.80;1.00
3208;DHT22;1616;52.394;9.756;2023-03-04T00:36:00;5.80;1.00
3208;DHT22;1616;52.394;9.756;2023-03-04T00:38:26;5.80;1.00
3208;DHT22;1616;52.394;9.756;2023-03-04T00:40:52;5.90;1.00
3208;DHT22;1616;52.394;9.756;2023-03-04T00:43:18;5.90;1.00
3208;DHT22;1616;52.394;9.756;2023-03-04T00:45:44;5.90;1.00
3208;DHT22;1616;52.394;9.756;2023-03-04T00:48:10;5.90;1.00
3208;DHT22;1616;52.394;9.756;2023-03-04T00:50:36;5.90;1.00
3208;DHT22;1616;52.394;9.756;2023-03-04T00:53:02;6.00;1.00
3208;DHT22;1616;52.394;9.756;2023-03-04T00:55:28;6.00;1.00
3208;DHT22;1616;52.394;9.756;2023-03-04T00:57:54;6.00;1.00
3208;DHT22;1616;52.394;9.756;2023-03-04T01:00:20;6.00;1.00
3208;DHT22;1616;52.394;9.756;2023-03-04T01:02:46;6.00;1.00
3208;DHT22;1616;52.394;9.756;2023-03-04T01:05:12;6.00;1.00
3208;DHT22;1616;52.394;9.756;2023-03-04T01:07:37;6.00;1.00
3208;DHT22;1616;52.394;9.756;2023-03-04T01:10:04;6.00;1.00
3208;DHT22;1616;52.394;9.756;2023-03-04T01:12:31;6.00;1.00
3208;DHT22;1616;52.394;9.756;2023-03-04T01:14:56;6.00;1.00
3208;DHT22;1616;52.394;9.756;2023-03-04T01:17:22;6.00;1.00
3208;DHT22;1616;52.394;9.756;2023-03-04T01:19:47;6.00;1.00
3208;DHT22;1616;52.394;9.756;2023-03-04T01:22:13;6.00;1.00
3208;DHT22;1616;52.394;9.756;2023-03-04T01:24:41;6.00;1.00
3208;DHT22;1616;52.394;9.756;2023-03-04T01:27:07;6.00;1.00
3208;DHT22;1616;52.394;9.756;2023-03-04T01:29:32;6.00;1.00
3208;DHT22;1616;52.394;9.756;2023-03-04T01:31:58;6.00;1.00
3208;DHT22;1616;52.394;9.756;2023-03-04T01:34:24;6.00;1.00
3208;DHT22;1616;52.394;9.756;2023-03-04T01:36:49;6.00;1.00
3208;DHT22;1616;52.394;9.756;2023-03-04T01:39:14;6.00;1.00
3208;DHT22;1616;52.394;9.756;2023-03-04T01:41:40;6.10;1.00
3208;DHT22;1616;52.394;9.756;2023-03-04T01:44:08;6.10;1.00
3208;DHT22;1616;52.394;9.756;2023-03-04T01:46:35;6.10;1.00
3208;DHT22;1616;52.394;9.756;2023-03-04T01:49:01;6.10;1.00
3208;DHT22;1616;52.394;9.756;2023-03-04T01:51:26;6.10;1.00
3208;DHT22;1616;52.394;9.756;2023-03-04T01:53:52;6.10;1.00
3208;DHT22;1616;52.394;9.756;2023-03-04T01:59:17;6.10;1.00
3208;DHT22;1616;52.394;9.756;2023-03-04T02:01:54;6.10;1.00
3208;DHT22;1616;52.394;9.756;2023-03-04T02:04:23;6.10;1.00
3208;DHT22;1616;52.394;9.756;2023-03-04T02:06:50;6.10;1.00
3208;DHT22;1616;52.394;9.756;2023-03-04T02:09:17;6.10;1.00
3208;DHT22;1616;52.394;9.756;2023-03-04T02:11:43;6.10;1.00
3208;DHT22;1616;52.394;9.756;2023-03-04T02:14:11;6.20;1.00
3208;DHT22;1616;52.394;9.756;2023-03-04T02:16:37;6.20;1.00
3208;DHT22;1616;52.394;9.756;2023-03-04T02:19:09;6.20;1.00
3208;DHT22;1616;52.394;9.756;2023-03-04T02:21:37;6.20;1.00
3208;DHT22;1616;52.394;9.756;2023-03-04T02:26:56;6.20;1.00
3208;DHT22;1616;52.394;9.756;2023-03-04T02:29:22;6.20;1.00
3208;DHT22;1616;52.394;9.756;2023-03-04T02:31:50;6.20;1.00
3208;DHT22;1616;52.394;9.756;2023-03-04T02:34:23;6.20;1.00
3208;DHT22;1616;52.394;9.756;2023-03-04T02:36:50;6.30;1.00
3208;DHT22;1616;52.394;9.756;2023-03-04T02:41:46;6.20;1.00
3208;DHT22;1616;52.394;9.756;2023-03-04T02:44:16;6.20;1.00
3208;DHT22;1616;52.394;9.756;2023-03-04T02:46:43;6.20;1.00
3208;DHT22;1616;52.394;9.756;2023-03-04T02:49:09;6.20;1.00
3208;DHT22;1616;52.394;9.756;2023-03-04T02:51:34;6.20;1.00
3208;DHT22;1616;52.394;9.756;2023-03-04T02:54:00;6.20;1.00
3208;DHT22;1616;52.394;9.756;2023-03-04T02:56:25;6.30;1.00
3208;DHT22;1616;52.394;9.756;2023-03-04T02:58:51;6.20;1.00
3208;DHT22;1616;52.394;9.756;2023-03-04T03:01:17;6.30;1.00
3208;DHT22;1616;52.394;9.756;2023-03-04T03:03:42;6.30;1.00
3208;DHT22;1616;52.394;9.756;2023-03-04T03:06:08;6.30;1.00
3208;DHT22;1616;52.394;9.756;2023-03-04T03:08:34;6.30;1.00
3208;DHT22;1616;52.394;9.756;2023-03-04T03:10:59;6.30;1.00
3208;DHT22;1616;52.394;9.756;2023-03-04T03:13:25;6.30;1.00
3208;DHT22;1616;52.394;9.756;2023-03-04T03:15:50;6.30;1.00
3208;DHT22;1616;52.394;9.756;2023-03-04T03:18:16;6.30;1.00
3208;DHT22;1616;52.394;9.756;2023-03-04T03:20:42;6.30;1.00
3208;DHT22;1616;52.394;9.756;2023-03-04T03:23:08;6.30;1.00
3208;DHT22;1616;52.394;9.756;2023-03-04T03:25:33;6.40;1.00
3208;DHT22;1616;52.394;9.756;2023-03-04T03:27:59;6.30;1.00
3208;DHT22;1616;52.394;9.756;2023-03-04T03:30:25;6.30;1.00
3208;DHT22;1616;52.394;9.756;2023-03-04T03:32:50;6.30;1.00
3208;DHT22;1616;52.394;9.756;2023-03-04T03:35:16;6.30;1.00
3208;DHT22;1616;52.394;9.756;2023-03-04T03:37:42;6.30;1.00
3208;DHT22;1616;52.394;9.756;2023-03-04T03:40:08;6.30;1.00
3208;DHT22;1616;52.394;9.756;2023-03-04T03:42:34;6.30;1.00
3208;DHT22;1616;52.394;9.756;2023-03-04T03:45:00;6.30;1.00
3208;DHT22;1616;52.394;9.756;2023-03-04T03:47:26;6.30;1.00
3208;DHT22;1616;52.394;9.756;2023-03-04T03:49:51;6.40;1.00
3208;DHT22;1616;52.394;9.756;2023-03-04T03:52:17;6.30;1.00
3208;DHT22;1616;52.394;9.756;2023-03-04T03:54:42;6.40;1.00
3208;DHT22;1616;52.394;9.756;2023-03-04T03:57:08;6.40;1.00
3208;DHT22;1616;52.394;9.756;2023-03-04T03:59:34;6.40;1.00
3208;DHT22;1616;52.394;9.756;2023-03-04T04:01:59;6.30;1.00
3208;DHT22;1616;52.394;9.756;2023-03-04T04:04:25;6.30;1.00
3208;DHT22;1616;52.394;9.756;2023-03-04T04:06:51;6.30;1.00
3208;DHT22;1616;52.394;9.756;2023-03-04T04:09:17;6.30;1.00
3208;DHT22;1616;52.394;9.756;2023-03-04T04:11:42;6.30;1.00
3208;DHT22;1616;52.394;9.756;2023-03-04T04:14:11;6.30;1.00
3208;DHT22;1616;52.394;9.756;2023-03-04T04:16:37;6.30;1.00
3208;DHT22;1616;52.394;9.756;2023-03-04T04:19:03;6.30;1.00
3208;DHT22;1616;52.394;9.756;2023-03-04T04:21:28;6.30;1.00
3208;DHT22;1616;52.394;9.756;2023-03-04T04:23:54;6.30;1.00
3208;DHT22;1616;52.394;9.756;2023-03-04T04:26:20;6.30;1.00
3208;DHT22;1616;52.394;9.756;2023-03-04T04:28:45;6.30;1.00
3208;DHT22;1616;52.394;9.756;2023-03-04T04:31:11;6.30;1.00
3208;DHT22;1616;52.394;9.756;2023-03-04T04:33:37;6.30;1.00
3208;DHT22;1616;52.394;9.756;2023-03-04T04:36:03;6.20;1.00
3208;DHT22;1616;52.394;9.756;2023-03-04T04:38:29;6.20;1.00
3208;DHT22;1616;52.394;9.756;2023-03-04T04:40:56;6.20;1.00
3208;DHT22;1616;52.394;9.756;2023-03-04T04:43:23;6.10;1.00
3208;DHT22;1616;52.394;9.756;2023-03-04T04:45:48;6.10;1.00
3208;DHT22;1616;52.394;9.756;2023-03-04T04:48:14;6.00;1.00
3208;DHT22;1616;52.394;9.756;2023-03-04T04:50:40;6.00;1.00
3208;DHT22;1616;52.394;9.756;2023-03-04T04:53:05;6.00;1.00
3208;DHT22;1616;52.394;9.756;2023-03-04T04:55:33;5.90;1.00
3208;DHT22;1616;52.394;9.756;2023-03-04T04:57:59;5.90;1.00
3208;DHT22;1616;52.394;9.756;2023-03-04T05:00:24;5.90;1.00
3208;DHT22;1616;52.394;9.756;2023-03-04T05:02:50;5.80;1.00
3208;DHT22;1616;52.394;9.756;2023-03-04T05:05:16;5.90;1.00
3208;DHT22;1616;52.394;9.756;2023-03-04T05:07:41;5.80;1.00
3208;DHT22;1616;52.394;9.756;2023-03-04T05:10:08;5.80;1.00
3208;DHT22;1616;52.394;9.756;2023-03-04T05:12:33;5.80;1.00
3208;DHT22;1616;52.394;9.756;2023-03-04T05:14:59;5.80;1.00
3208;DHT22;1616;52.394;9.756;2023-03-04T05:17:24;5.80;1.00
3208;DHT22;1616;52.394;9.756;2023-03-04T05:19:50;5.70;1.00
3208;DHT22;1616;52.394;9.756;2023-03-04T05:22:16;5.80;1.00
3208;DHT22;1616;52.394;9.756;2023-03-04T05:24:41;5.80;1.00
3208;DHT22;1616;52.394;9.756;2023-03-04T05:27:07;5.70;1.00
3208;DHT22;1616;52.394;9.756;2023-03-04T05:29:32;5.70;1.00
3208;DHT22;1616;52.394;9.756;2023-03-04T05:31:58;5.70;1.00
3208;DHT22;1616;52.394;9.756;2023-03-04T05:34:23;5.70;1.00
3208;DHT22;1616;52.394;9.756;2023-03-04T05:36:49;5.70;1.00
3208;DHT22;1616;52.394;9.756;2023-03-04T05:39:14;5.70;1.00
3208;DHT22;1616;52.394;9.756;2023-03-04T05:41:40;5.60;1.00
3208;DHT22;1616;52.394;9.756;2023-03-04T05:44:06;5.70;1.00
3208;DHT22;1616;52.394;9.756;2023-03-04T05:46:31;5.70;1.00
3208;DHT22;1616;52.394;9.756;2023-03-04T05:48:57;5.70;1.00
3208;DHT22;1616;52.394;9.756;2023-03-04T05:51:22;5.60;1.00
3208;DHT22;1616;52.394;9.756;2023-03-04T05:53:48;5.70;1.00
3208;DHT22;1616;52.394;9.756;2023-03-04T05:56:16;5.70;1.00
3208;DHT22;1616;52.394;9.756;2023-03-04T05:58:43;5.70;1.00
3208;DHT22;1616;52.394;9.756;2023-03-04T06:01:09;5.70;1.00
3208;DHT22;1616;52.394;9.756;2023-03-04T06:03:35;5.70;1.00
3208;DHT22;1616;52.394;9.756;2023-03-04T06:06:01;5.80;1.00
3208;DHT22;1616;52.394;9.756;2023-03-04T06:08:27;5.80;1.00
3208;DHT22;1616;52.394;9.756;2023-03-04T06:10:55;5.80;1.00
3208;DHT22;1616;52.394;9.756;2023-03-04T06:13:21;5.80;1.00
3208;DHT22;1616;52.394;9.756;2023-03-04T06:15:47;5.90;1.00
3208;DHT22;1616;52.394;9.756;2023-03-04T06:18:17;5.90;1.00
3208;DHT22;1616;52.394;9.756;2023-03-04T06:20:43;5.90;1.00
3208;DHT22;1616;52.394;9.756;2023-03-04T06:23:09;5.90;1.00
3208;DHT22;1616;52.394;9.756;2023-03-04T06:25:35;5.80;1.00
3208;DHT22;1616;52.394;9.756;2023-03-04T06:28:01;5.80;1.00
3208;DHT22;1616;52.394;9.756;2023-03-04T06:30:27;5.80;1.00
3208;DHT22;1616;52.394;9.756;2023-03-04T06:32:53;5.80;1.00
3208;DHT22;1616;52.394;9.756;2023-03-04T06:35:18;5.80;1.00
3208;DHT22;1616;52.394;9.756;2023-03-04T06:37:44;5.70;1.00
3208;DHT22;1616;52.394;9.756;2023-03-04T06:40:11;5.80;1.00
3208;DHT22;1616;52.394;9.756;2023-03-04T06:42:37;5.80;1.00
3208;DHT22;1616;52.394;9.756;2023-03-04T06:45:05;5.90;1.00
3208;DHT22;1616;52.394;9.756;2023-03-04T06:47:31;5.90;1.00
3208;DHT22;1616;52.394;9.756;2023-03-04T06:49:57;6.00;1.00
3208;DHT22;1616;52.394;9.756;2023-03-04T06:52:23;6.00;1.00
3208;DHT22;1616;52.394;9.756;2023-03-04T06:54:48;6.00;1.00
3208;DHT22;1616;52.394;9.756;2023-03-04T06:57:14;6.10;1.00
3208;DHT22;1616;52.394;9.756;2023-03-04T06:59:40;6.10;1.00
3208;DHT22;1616;52.394;9.756;2023-03-04T07:02:06;6.00;1.00
3208;DHT22;1616;52.394;9.756;2023-03-04T07:04:34;6.10;1.00
3208;DHT22;1616;52.394;9.756;2023-03-04T07:07:00;6.10;1.00
3208;DHT22;1616;52.394;9.756;2023-03-04T07:09:25;6.10;1.00
3208;DHT22;1616;52.394;9.756;2023-03-04T07:11:51;6.10;1.00
3208;DHT22;1616;52.394;9.756;2023-03-04T07:14:17;6.20;1.00
3208;DHT22;1616;52.394;9.756;2023-03-04T07:16:42;6.20;1.00
3208;DHT22;1616;52.394;9.756;2023-03-04T07:19:08;6.20;1.00
3208;DHT22;1616;52.394;9.756;2023-03-04T07:21:34;6.20;1.00
3208;DHT22;1616;52.394;9.756;2023-03-04T07:23:59;6.30;1.00
3208;DHT22;1616;52.394;9.756;2023-03-04T07:26:25;6.30;1.00
3208;DHT22;1616;52.394;9.756;2023-03-04T07:28:51;6.20;1.00
3208;DHT22;1616;52.394;9.756;2023-03-04T07:31:22;6.20;1.00
3208;DHT22;1616;52.394;9.756;2023-03-04T07:33:48;6.20;1.00
3208;DHT22;1616;52.394;9.756;2023-03-04T07:36:15;6.20;1.00
3208;DHT22;1616;52.394;9.756;2023-03-04T07:38:45;6.30;1.00
3208;DHT22;1616;52.394;9.756;2023-03-04T07:41:11;6.30;1.00
3208;DHT22;1616;52.394;9.756;2023-03-04T07:43:37;6.40;1.00
3208;DHT22;1616;52.394;9.756;2023-03-04T07:46:02;6.50;1.00
3208;DHT22;1616;52.394;9.756;2023-03-04T07:48:28;6.50;1.00
3208;DHT22;1616;52.394;9.756;2023-03-04T07:51:04;6.60;1.00
3208;DHT22;1616;52.394;9.756;2023-03-04T07:53:31;6.70;1.00
3208;DHT22;1616;52.394;9.756;2023-03-04T07:55:57;6.90;1.00
3208;DHT22;1616;52.394;9.756;2023-03-04T07:58:23;6.90;1.00
3208;DHT22;1616;52.394;9.756;2023-03-04T08:00:48;6.90;1.00
3208;DHT22;1616;52.394;9.756;2023-03-04T08:03:14;7.00;1.00
3208;DHT22;1616;52.394;9.756;2023-03-04T08:05:39;6.90;1.00
3208;DHT22;1616;52.394;9.756;2023-03-04T08:08:05;6.90;1.00
3208;DHT22;1616;52.394;9.756;2023-03-04T08:10:30;6.80;1.00
3208;DHT22;1616;52.394;9.756;2023-03-04T08:12:56;6.80;1.00
3208;DHT22;1616;52.394;9.756;2023-03-04T08:15:21;6.80;1.00
3208;DHT22;1616;52.394;9.756;2023-03-04T08:17:47;6.70;1.00
3208;DHT22;1616;52.394;9.756;2023-03-04T08:20:13;6.70;1.00
3208;DHT22;1616;52.394;9.756;2023-03-04T08:22:39;6.70;1.00
3208;DHT22;1616;52.394;9.756;2023-03-04T08:25:04;6.70;1.00
3208;DHT22;1616;52.394;9.756;2023-03-04T08:27:30;6.60;1.00
3208;DHT22;1616;52.394;9.756;2023-03-04T08:29:56;6.60;1.00
3208;DHT22;1616;52.394;9.756;2023-03-04T08:32:21;6.60;1.00
3208;DHT22;1616;52.394;9.756;2023-03-04T08:34:47;6.80;1.00
3208;DHT22;1616;52.394;9.756;2023-03-04T08:37:13;6.60;1.00
3208;DHT22;1616;52.394;9.756;2023-03-04T08:39:39;6.50;1.00
3208;DHT22;1616;52.394;9.756;2023-03-04T08:42:04;6.50;1.00
3208;DHT22;1616;52.394;9.756;2023-03-04T08:44:30;6.50;1.00
3208;DHT22;1616;52.394;9.756;2023-03-04T08:46:56;6.50;1.00
3208;DHT22;1616;52.394;9.756;2023-03-04T08:49:21;6.60;1.00
3208;DHT22;1616;52.394;9.756;2023-03-04T08:51:47;6.60;1.00
3208;DHT22;1616;52.394;9.756;2023-03-04T08:54:12;6.60;1.00
3208;DHT22;1616;52.394;9.756;2023-03-04T08:56:39;6.70;1.00
3208;DHT22;1616;52.394;9.756;2023-03-04T08:59:06;6.60;1.00
3208;DHT22;1616;52.394;9.756;2023-03-04T09:01:31;6.60;1.00
3208;DHT22;1616;52.394;9.756;2023-03-04T09:03:57;6.70;1.00
3208;DHT22;1616;52.394;9.756;2023-03-04T09:06:23;6.70;1.00
3208;DHT22;1616;52.394;9.756;2023-03-04T09:08:48;6.60;1.00
3208;DHT22;1616;52.394;9.756;2023-03-04T09:11:14;6.60;1.00
3208;DHT22;1616;52.394;9.756;2023-03-04T09:13:40;6.60;1.00
3208;DHT22;1616;52.394;9.756;2023-03-04T09:16:11;6.60;1.00
3208;DHT22;1616;52.394;9.756;2023-03-04T09:18:37;6.50;1.00
3208;DHT22;1616;52.394;9.756;2023-03-04T09:21:04;6.60;1.00
3208;DHT22;1616;52.394;9.756;2023-03-04T09:23:31;6.60;1.00
3208;DHT22;1616;52.394;9.756;2023-03-04T09:25:56;6.80;1.00
3208;DHT22;1616;52.394;9.756;2023-03-04T09:28:22;7.10;1.00
3208;DHT22;1616;52.394;9.756;2023-03-04T09:30:47;7.50;1.00
3208;DHT22;1616;52.394;9.756;2023-03-04T09:33:13;7.80;1.00
3208;DHT22;1616;52.394;9.756;2023-03-04T09:35:39;7.90;1.00
3208;DHT22;1616;52.394;9.756;2023-03-04T09:38:05;8.00;1.00
3208;DHT22;1616;52.394;9.756;2023-03-04T09:40:42;8.00;1.00
3208;DHT22;1616;52.394;9.756;2023-03-04T09:43:38;7.90;1.00
3208;DHT22;1616;52.394;9.756;2023-03-04T09:46:09;7.90;1.00
3208;DHT22;1616;52.394;9.756;2023-03-04T09:48:48;7.80;1.00
3208;DHT22;1616;52.394;9.756;2023-03-04T09:51:21;7.70;1.00
3208;DHT22;1616;52.394;9.756;2023-03-04T09:56:35;7.50;1.00
3208;DHT22;1616;52.394;9.756;2023-03-04T10:01:48;7.30;1.00
3208;DHT22;1616;52.394;9.756;2023-03-04T10:06:51;7.20;1.00
3208;DHT22;1616;52.394;9.756;2023-03-04T10:09:24;7.20;1.00
3208;DHT22;1616;52.394;9.756;2023-03-04T10:12:03;7.30;1.00
3208;DHT22;1616;52.394;9.756;2023-03-04T10:14:51;7.40;1.00
3208;DHT22;1616;52.394;9.756;2023-03-04T10:17:33;7.60;1.00
3208;DHT22;1616;52.394;9.756;2023-03-04T10:20:21;7.80;1.00
3208;DHT22;1616;52.394;9.756;2023-03-04T10:22:55;7.90;1.00
3208;DHT22;1616;52.394;9.756;2023-03-04T10:25:25;7.90;1.00
3208;DHT22;1616;52.394;9.756;2023-03-04T10:28:01;7.80;1.00
3208;DHT22;1616;52.394;9.756;2023-03-04T10:33:17;7.90;1.00
3208;DHT22;1616;52.394;9.756;2023-03-04T10:35:58;7.80;1.00
3208;DHT22;1616;52.394;9.756;2023-03-04T10:38:24;7.70;1.00
3208;DHT22;1616;52.394;9.756;2023-03-04T10:40:53;7.70;1.00
3208;DHT22;1616;52.394;9.756;2023-03-04T10:43:20;7.60;1.00
3208;DHT22;1616;52.394;9.756;2023-03-04T10:45:47;7.70;1.00
3208;DHT22;1616;52.394;9.756;2023-03-04T10:48:28;8.00;1.00
3208;DHT22;1616;52.394;9.756;2023-03-04T10:51:17;8.30;1.00
3208;DHT22;1616;52.394;9.756;2023-03-04T10:53:44;8.50;1.00
3208;DHT22;1616;52.394;9.756;2023-03-04T10:56:39;8.60;1.00
3208;DHT22;1616;52.394;9.756;2023-03-04T10:59:33;8.80;1.00
3208;DHT22;1616;52.394;9.756;2023-03-04T11:02:23;9.10;1.00
3208;DHT22;1616;52.394;9.756;2023-03-04T11:05:36;9.40;1.00
3208;DHT22;1616;52.394;9.756;2023-03-04T11:07:40;9.60;1.00
3208;DHT22;1616;52.394;9.756;2023-03-04T11:12:38;9.60;1.00
3208;DHT22;1616;52.394;9.756;2023-03-04T11:15:20;9.40;1.00
3208;DHT22;1616;52.394;9.756;2023-03-04T11:17:51;9.20;1.00
3208;DHT22;1616;52.394;9.756;2023-03-04T11:20:32;8.90;1.00
3208;DHT22;1616;52.394;9.756;2023-03-04T11:23:08;8.70;1.00
3208;DHT22;1616;52.394;9.756;2023-03-04T11:25:40;8.60;1.00
3208;DHT22;1616;52.394;9.756;2023-03-04T11:28:20;8.60;1.00
3208;DHT22;1616;52.394;9.756;2023-03-04T11:30:56;8.80;1.00
3208;DHT22;1616;52.394;9.756;2023-03-04T11:33:37;9.00;1.00
3208;DHT22;1616;52.394;9.756;2023-03-04T11:39:16;9.40;1.00
3208;DHT22;1616;52.394;9.756;2023-03-04T11:41:53;9.60;1.00
3208;DHT22;1616;52.394;9.756;2023-03-04T11:44:20;10.00;1.00
3208;DHT22;1616;52.394;9.756;2023-03-04T11:50:04;10.90;1.00
3208;DHT22;1616;52.394;9.756;2023-03-04T11:52:49;12.30;1.00
3208;DHT22;1616;52.394;9.756;2023-03-04T11:55:35;13.40;1.00
3208;DHT22;1616;52.394;9.756;2023-03-04T12:01:19;12.80;1.00
3208;DHT22;1616;52.394;9.756;2023-03-04T12:04:05;12.00;1.00
3208;DHT22;1616;52.394;9.756;2023-03-04T12:15:19;11.30;1.00
3208;DHT22;1616;52.394;9.756;2023-03-04T12:20:46;11.20;1.00
3208;DHT22;1616;52.394;9.756;2023-03-04T12:29:06;11.00;1.00
3208;DHT22;1616;52.394;9.756;2023-03-04T12:31:37;11.10;1.00
3208;DHT22;1616;52.394;9.756;2023-03-04T12:36:54;11.30;1.00
3208;DHT22;1616;52.394;9.756;2023-03-04T12:42:37;11.30;1.00
3208;DHT22;1616;52.394;9.756;2023-03-04T12:45:21;11.10;1.00
3208;DHT22;1616;52.394;9.756;2023-03-04T12:48:08;10.80;1.00
3208;DHT22;1616;52.394;9.756;2023-03-04T12:51:06;10.50;1.00
3208;DHT22;1616;52.394;9.756;2023-03-04T12:53:57;10.20;1.00
3208;DHT22;1616;52.394;9.756;2023-03-04T12:56:38;10.00;1.00
3208;DHT22;1616;52.394;9.756;2023-03-04T12:59:08;9.90;1.00
3208;DHT22;1616;52.394;9.756;2023-03-04T13:01:49;9.80;1.00
3208;DHT22;1616;52.394;9.756;2023-03-04T13:10:02;9.70;1.00
3208;DHT22;1616;52.394;9.756;2023-03-04T13:12:51;9.70;1.00
3208;DHT22;1616;52.394;9.756;2023-03-04T13:17:49;9.50;1.00
3208;DHT22;1616;52.394;9.756;2023-03-04T13:20:35;9.40;1.00
3208;DHT22;1616;52.394;9.756;2023-03-04T13:25:36;9.60;1.00
3208;DHT22;1616;52.394;9.756;2023-03-04T13:43:46;9.60;1.00
3208;DHT22;1616;52.394;9.756;2023-03-04T13:56:25;9.10;1.00
3208;DHT22;1616;52.394;9.756;2023-03-04T13:59:17;9.00;1.00
3208;DHT22;1616;52.394;9.756;2023-03-04T14:02:09;8.90;1.00
3208;DHT22;1616;52.394;9.756;2023-03-04T14:04:38;8.80;1.00
3208;DHT22;1616;52.394;9.756;2023-03-04T14:07:36;8.70;1.00
3208;DHT22;1616;52.394;9.756;2023-03-04T14:15:28;8.70;1.00
3208;DHT22;1616;52.394;9.756;2023-03-04T14:17:59;8.80;1.00
3208;DHT22;1616;52.394;9.756;2023-03-04T14:25:46;8.80;1.00
3208;DHT22;1616;52.394;9.756;2023-03-04T14:28:14;8.80;1.00
3208;DHT22;1616;52.394;9.756;2023-03-04T14:30:51;8.70;1.00
3208;DHT22;1616;52.394;9.756;2023-03-04T14:33:24;8.70;1.00
3208;DHT22;1616;52.394;9.756;2023-03-04T14:35:54;8.70;1.00
3208;DHT22;1616;52.394;9.756;2023-03-04T14:38:36;8.60;1.00
3208;DHT22;1616;52.394;9.756;2023-03-04T14:41:15;8.50;1.00
3208;DHT22;1616;52.394;9.756;2023-03-04T14:43:58;8.50;1.00
3208;DHT22;1616;52.394;9.756;2023-03-04T14:46:30;8.30;1.00
3208;DHT22;1616;52.394;9.756;2023-03-04T14:48:56;8.20;1.00
3208;DHT22;1616;52.394;9.756;2023-03-04T14:51:49;8.20;1.00
3208;DHT22;1616;52.394;9.756;2023-03-04T14:57:22;8.30;1.00
3208;DHT22;1616;52.394;9.756;2023-03-04T14:59:50;8.30;1.00
3208;DHT22;1616;52.394;9.756;2023-03-04T15:02:24;8.30;1.00
3208;DHT22;1616;52.394;9.756;2023-03-04T15:04:58;8.30;1.00
3208;DHT22;1616;52.394;9.756;2023-03-04T15:07:34;8.40;1.00
3208;DHT22;1616;52.394;9.756;2023-03-04T15:10:02;8.40;1.00
3208;DHT22;1616;52.394;9.756;2023-03-04T15:12:32;8.40;1.00
3208;DHT22;1616;52.394;9.756;2023-03-04T15:15:00;8.40;1.00
3208;DHT22;1616;52.394;9.756;2023-03-04T15:25:13;8.30;1.00
3208;DHT22;1616;52.394;9.756;2023-03-04T15:27:46;8.20;1.00
3208;DHT22;1616;52.394;9.756;2023-03-04T15:30:19;8.10;1.00
3208;DHT22;1616;52.394;9.756;2023-03-04T15:32:47;8.00;1.00
3208;DHT22;1616;52.394;9.756;2023-03-04T15:35:14;7.80;1.00
3208;DHT22;1616;52.394;9.756;2023-03-04T15:37:40;7.70;1.00
3208;DHT22;1616;52.394;9.756;2023-03-04T15:40:22;7.60;1.00
3208;DHT22;1616;52.394;9.756;2023-03-04T15:42:48;7.50;1.00
3208;DHT22;1616;52.394;9.756;2023-03-04T15:45:23;7.50;1.00
3208;DHT22;1616;52.394;9.756;2023-03-04T15:47:49;7.50;1.00
3208;DHT22;1616;52.394;9.756;2023-03-04T15:50:18;7.50;1.00
3208;DHT22;1616;52.394;9.756;2023-03-04T15:52:45;7.50;1.00
3208;DHT22;1616;52.394;9.756;2023-03-04T15:55:19;7.60;1.00
3208;DHT22;1616;52.394;9.756;2023-03-04T15:57:48;7.60;1.00
3208;DHT22;1616;52.394;9.756;2023-03-04T16:00:17;7.50;1.00
3208;DHT22;1616;52.394;9.756;2023-03-04T16:02:42;7.50;1.00
3208;DHT22;1616;52.394;9.756;2023-03-04T16:05:09;7.40;1.00
3208;DHT22;1616;52.394;9.756;2023-03-04T16:07:36;7.40;1.00
3208;DHT22;1616;52.394;9.756;2023-03-04T16:10:07;7.30;1.00
3208;DHT22;1616;52.394;9.756;2023-03-04T16:12:36;7.30;1.00
3208;DHT22;1616;52.394;9.756;2023-03-04T16:15:10;7.30;1.00
3208;DHT22;1616;52.394;9.756;2023-03-04T16:17:36;7.30;1.00
3208;DHT22;1616;52.394;9.756;2023-03-04T16:20:12;7.30;1.00
3208;DHT22;1616;52.394;9.756;2023-03-04T16:22:39;7.20;1.00
3208;DHT22;1616;52.394;9.756;2023-03-04T16:25:07;7.10;1.00
3208;DHT22;1616;52.394;9.756;2023-03-04T16:27:33;7.10;1.00
3208;DHT22;1616;52.394;9.756;2023-03-04T16:29:58;7.10;1.00
3208;DHT22;1616;52.394;9.756;2023-03-04T16:32:24;7.00;1.00
3208;DHT22;1616;52.394;9.756;2023-03-04T16:34:50;6.90;1.00
3208;DHT22;1616;52.394;9.756;2023-03-04T16:37:18;6.80;1.00
3208;DHT22;1616;52.394;9.756;2023-03-04T16:39:44;6.80;1.00
3208;DHT22;1616;52.394;9.756;2023-03-04T16:42:18;6.70;1.00
3208;DHT22;1616;52.394;9.756;2023-03-04T16:44:47;6.70;1.00
3208;DHT22;1616;52.394;9.756;2023-03-04T16:47:13;6.60;1.00
3208;DHT22;1616;52.394;9.756;2023-03-04T16:49:39;6.60;1.00
3208;DHT22;1616;52.394;9.756;2023-03-04T16:52:06;6.50;1.00
3208;DHT22;1616;52.394;9.756;2023-03-04T16:54:34;6.50;1.00
3208;DHT22;1616;52.394;9.756;2023-03-04T16:57:00;6.50;1.00
3208;DHT22;1616;52.394;9.756;2023-03-04T16:59:27;6.40;1.00
3208;DHT22;1616;52.394;9.756;2023-03-04T17:01:53;6.40;1.00
3208;DHT22;1616;52.394;9.756;2023-03-04T17:04:20;6.40;1.00
3208;DHT22;1616;52.394;9.756;2023-03-04T17:06:46;6.40;1.00
3208;DHT22;1616;52.394;9.756;2023-03-04T17:09:12;6.30;1.00
3208;DHT22;1616;52.394;9.756;2023-03-04T17:11:37;6.30;1.00
3208;DHT22;1616;52.394;9.756;2023-03-04T17:14:04;6.30;1.00
3208;DHT22;1616;52.394;9.756;2023-03-04T17:16:29;6.30;1.00
3208;DHT22;1616;52.394;9.756;2023-03-04T17:18:55;6.30;1.00
3208;DHT22;1616;52.394;9.756;2023-03-04T17:21:24;6.30;1.00
3208;DHT22;1616;52.394;9.756;2023-03-04T17:23:51;6.30;1.00
3208;DHT22;1616;52.394;9.756;2023-03-04T17:26:17;6.30;1.00
3208;DHT22;1616;52.394;9.756;2023-03-04T17:28:48;6.20;1.00
3208;DHT22;1616;52.394;9.756;2023-03-04T17:31:16;6.20;1.00
3208;DHT22;1616;52.394;9.756;2023-03-04T17:33:42;6.20;1.00
3208;DHT22;1616;52.394;9.756;2023-03-04T17:36:10;6.20;1.00
3208;DHT22;1616;52.394;9.756;2023-03-04T17:38:37;6.20;1.00
3208;DHT22;1616;52.394;9.756;2023-03-04T17:41:03;6.20;1.00
3208;DHT22;1616;52.394;9.756;2023-03-04T17:43:30;6.20;1.00
3208;DHT22;1616;52.394;9.756;2023-03-04T17:46:07;6.20;1.00
3208;DHT22;1616;52.394;9.756;2023-03-04T17:48:33;6.20;1.00
3208;DHT22;1616;52.394;9.756;2023-03-04T17:50:59;6.20;1.00
3208;DHT22;1616;52.394;9.756;2023-03-04T17:53:26;6.20;1.00
3208;DHT22;1616;52.394;9.756;2023-03-04T17:55:54;6.20;1.00
3208;DHT22;1616;52.394;9.756;2023-03-04T17:58:20;6.20;1.00
3208;DHT22;1616;52.394;9.756;2023-03-04T18:00:46;6.20;1.00
3208;DHT22;1616;52.394;9.756;2023-03-04T18:03:13;6.20;1.00
3208;DHT22;1616;52.394;9.756;2023-03-04T18:05:38;6.20;1.00
3208;DHT22;1616;52.394;9.756;2023-03-04T18:08:05;6.10;1.00
3208;DHT22;1616;52.394;9.756;2023-03-04T18:10:31;6.10;1.00
3208;DHT22;1616;52.394;9.756;2023-03-04T18:12:57;6.10;1.00
3208;DHT22;1616;52.394;9.756;2023-03-04T18:15:22;6.00;1.00
3208;DHT22;1616;52.394;9.756;2023-03-04T18:17:48;6.00;1.00
3208;DHT22;1616;52.394;9.756;2023-03-04T18:20:15;6.00;1.00
3208;DHT22;1616;52.394;9.756;2023-03-04T18:22:41;5.90;1.00
3208;DHT22;1616;52.394;9.756;2023-03-04T18:25:07;5.90;1.00
3208;DHT22;1616;52.394;9.756;2023-03-04T18:27:35;5.80;1.00
3208;DHT22;1616;52.394;9.756;2023-03-04T18:30:06;5.80;1.00
3208;DHT22;1616;52.394;9.756;2023-03-04T18:32:32;5.70;1.00
3208;DHT22;1616;52.394;9.756;2023-03-04T18:34:57;5.70;1.00
3208;DHT22;1616;52.394;9.756;2023-03-04T18:37:23;5.60;1.00